createdAt,value
2018-07-04T00:00:51.714Z,101264.86
2018-07-04T00:03:30.177Z,101269.45
2018-07-04T00:06:08.700Z,101271.41
2018-07-04T00:08:47.181Z,101273.70
2018-07-04T00:11:25.757Z,101271.34
2018-07-04T00:14:04.112Z,101273.11
2018-07-04T00:16:42.701Z,101276.70
2018-07-04T00:19:21.247Z,101273.39
2018-07-04T00:21:59.833Z,101273.87
2018-07-04T00:24:38.474Z,101272.23
2018-07-04T00:27:17.105Z,101271.03
2018-07-04T00:29:55.601Z,101268.08
2018-07-04T00:32:34.321Z,101270.84
2018-07-04T00:35:12.802Z,101268.00
2018-07-04T00:37:51.304Z,101267.20
2018-07-04T00:40:29.738Z,101270.12
2018-07-04T00:43:08.329Z,101270.12
2018-07-04T00:45:46.785Z,101275.67
2018-07-04T00:48:25.156Z,101267.36
2018-07-04T00:51:03.677Z,101275.43
2018-07-04T00:53:42.353Z,101279.19
2018-07-04T00:56:20.885Z,101286.41
2018-07-04T00:58:59.436Z,101273.63
2018-07-04T01:01:38.026Z,101273.43
2018-07-04T01:04:16.665Z,101278.38
2018-07-04T01:06:55.266Z,101280.17
2018-07-04T01:09:33.779Z,101281.14
2018-07-04T01:12:12.217Z,101279.97
2018-07-04T01:14:50.893Z,101276.30
2018-07-04T01:17:29.381Z,101280.41
2018-07-04T01:20:07.821Z,101282.69
2018-07-04T01:22:46.377Z,101279.52
2018-07-04T01:25:24.805Z,101281.16
2018-07-04T01:28:03.349Z,101279.80
2018-07-04T01:30:42.001Z,101278.13
2018-07-04T01:33:20.701Z,101276.95
2018-07-04T01:35:59.294Z,101272.13
2018-07-04T01:38:37.770Z,101270.24
2018-07-04T01:41:16.313Z,101271.91
2018-07-04T01:43:54.970Z,101267.25
2018-07-04T01:46:33.723Z,101268.56
2018-07-04T01:49:12.323Z,101268.92
2018-07-04T01:51:50.737Z,101264.29
2018-07-04T01:54:29.132Z,101258.86
2018-07-04T01:57:08.001Z,101257.22
2018-07-04T01:59:46.593Z,101267.87
2018-07-04T02:02:25.145Z,101265.25
2018-07-04T02:05:03.548Z,101261.92
2018-07-04T02:07:42.152Z,101266.88
2018-07-04T02:10:20.753Z,101273.10
2018-07-04T02:12:59.313Z,101268.95
2018-07-04T02:15:37.964Z,101270.73
2018-07-04T02:18:16.538Z,101269.09
2018-07-04T02:20:55.029Z,101264.22
2018-07-04T02:23:33.542Z,101263.06
2018-07-04T02:26:12.397Z,101257.11
2018-07-04T02:28:50.829Z,101268.55
2018-07-04T02:31:29.258Z,101263.19
2018-07-04T02:34:07.870Z,101266.09
2018-07-04T02:36:46.566Z,101269.06
2018-07-04T02:39:25.013Z,101264.91
2018-07-04T02:42:03.520Z,101271.64
2018-07-04T02:44:41.865Z,101269.96
2018-07-04T02:47:26.869Z,101262.69
2018-07-04T02:50:05.577Z,101269.43
2018-07-04T02:52:44.333Z,101270.38
2018-07-04T02:55:23.129Z,101275.30
2018-07-04T02:58:01.630Z,101271.02
2018-07-04T03:00:40.158Z,101263.80
2018-07-04T03:03:18.690Z,101266.08
2018-07-04T03:05:57.261Z,101263.33
2018-07-04T03:08:36.139Z,101264.85
2018-07-04T03:11:14.673Z,101263.74
2018-07-04T03:13:53.265Z,101263.38
2018-07-04T03:16:31.885Z,101265.45
2018-07-04T03:19:10.499Z,101258.33
2018-07-04T03:21:48.965Z,101264.02
2018-07-04T03:24:27.619Z,101257.08
2018-07-04T03:27:06.263Z,101261.39
2018-07-04T03:29:44.844Z,101258.59
2018-07-04T03:32:23.509Z,101259.29
2018-07-04T03:35:02.110Z,101257.85
2018-07-04T03:37:40.650Z,101259.02
2018-07-04T03:40:19.221Z,101260.91
2018-07-04T03:42:57.920Z,101261.66
2018-07-04T03:45:36.510Z,101259.59
2018-07-04T03:48:14.989Z,101256.65
2018-07-04T03:50:53.592Z,101257.02
2018-07-04T03:53:32.059Z,101254.11
2018-07-04T03:56:10.558Z,101253.00
2018-07-04T03:58:49.058Z,101255.48
2018-07-04T04:01:27.889Z,101257.99
2018-07-04T04:04:06.420Z,101255.89
2018-07-04T04:06:45.079Z,101256.88
2018-07-04T04:09:23.765Z,101258.44
2018-07-04T04:12:02.661Z,101250.59
2018-07-04T04:14:41.169Z,101251.95
2018-07-04T04:17:19.904Z,101251.20
2018-07-04T04:19:58.457Z,101250.25
2018-07-04T04:22:37.170Z,101254.25
2018-07-04T04:25:15.566Z,101252.50
2018-07-04T04:27:54.101Z,101254.70
2018-07-04T04:30:32.983Z,101252.95
2018-07-04T04:33:11.665Z,101251.36
2018-07-04T04:35:50.319Z,101257.88
2018-07-04T04:38:28.920Z,101256.96
2018-07-04T04:41:07.554Z,101256.73
2018-07-04T04:43:46.355Z,101254.50
2018-07-04T04:46:24.864Z,101248.02
2018-07-04T04:49:03.611Z,101249.94
2018-07-04T04:51:42.173Z,101251.98
2018-07-04T04:54:21.093Z,101254.73
2018-07-04T04:56:59.706Z,101251.45
2018-07-04T04:59:38.371Z,101252.90
2018-07-04T05:02:16.973Z,101251.06
2018-07-04T05:04:55.604Z,101251.70
2018-07-04T05:07:34.121Z,101252.81
2018-07-04T05:10:12.673Z,101250.66
2018-07-04T05:12:51.140Z,101255.54
2018-07-04T05:15:29.654Z,101249.50
2018-07-04T05:18:08.121Z,101254.49
2018-07-04T05:20:46.801Z,101261.28
2018-07-04T05:23:25.396Z,101254.61
2018-07-04T05:26:04.064Z,101255.03
2018-07-04T05:28:42.649Z,101254.30
2018-07-04T05:31:21.234Z,101254.89
2018-07-04T05:33:59.706Z,101255.16
2018-07-04T05:36:38.378Z,101259.98
2018-07-04T05:39:16.874Z,101261.69
2018-07-04T05:41:55.581Z,101260.76
2018-07-04T05:44:34.193Z,101259.70
2018-07-04T05:47:12.674Z,101255.95
2018-07-04T05:49:51.181Z,101258.33
2018-07-04T05:52:29.703Z,101264.94
2018-07-04T05:55:08.196Z,101257.44
2018-07-04T05:57:46.841Z,101258.30
2018-07-04T06:00:25.442Z,101258.52
2018-07-04T06:03:03.928Z,101256.13
2018-07-04T06:05:42.613Z,101256.05
2018-07-04T06:08:21.111Z,101252.36
2018-07-04T06:10:59.680Z,101253.41
2018-07-04T06:13:38.281Z,101257.12
2018-07-04T06:16:16.832Z,101255.56
2018-07-04T06:18:55.266Z,101257.93
2018-07-04T06:21:34.189Z,101265.67
2018-07-04T06:24:12.673Z,101257.09
2018-07-04T06:26:51.193Z,101249.25
2018-07-04T06:29:29.609Z,101252.44
2018-07-04T06:32:08.273Z,101247.65
2018-07-04T06:34:46.693Z,101247.55
2018-07-04T06:37:25.158Z,101248.97
2018-07-04T06:39:51.216Z,101252.64
2018-07-04T06:42:17.317Z,101250.35
2018-07-04T06:44:43.398Z,101250.02
2018-07-04T06:47:09.549Z,101250.09
2018-07-04T06:49:35.635Z,101246.14
2018-07-04T06:52:01.709Z,101245.52
2018-07-04T06:54:27.860Z,101243.58
2018-07-04T06:56:53.994Z,101248.24
2018-07-04T06:59:20.057Z,101247.75
2018-07-04T07:01:46.148Z,101243.35
2018-07-04T07:04:24.801Z,101243.20
2018-07-04T07:07:03.446Z,101244.50
2018-07-04T07:09:42.094Z,101243.35
2018-07-04T07:12:20.641Z,101242.05
2018-07-04T07:14:59.185Z,101240.09
2018-07-04T07:17:37.731Z,101236.10
2018-07-04T07:20:16.279Z,101229.67
2018-07-04T07:22:54.980Z,101233.30
2018-07-04T07:25:33.557Z,101215.44
2018-07-04T07:28:12.085Z,101234.14
2018-07-04T07:30:50.614Z,101234.16
2018-07-04T07:33:29.336Z,101231.18
2018-07-04T07:36:07.978Z,101226.52
2018-07-04T07:38:46.585Z,101222.55
2018-07-04T07:41:24.977Z,101222.73
2018-07-04T07:44:03.528Z,101221.38
2018-07-04T07:46:42.041Z,101222.86
2018-07-04T07:49:20.517Z,101217.84
2018-07-04T07:51:59.009Z,101215.48
2018-07-04T07:54:37.449Z,101219.79
2018-07-04T07:57:16.194Z,101209.80
2018-07-04T07:59:54.705Z,101210.91
2018-07-04T08:02:33.224Z,101212.20
2018-07-04T08:05:11.725Z,101201.92
2018-07-04T08:07:50.240Z,101202.58
2018-07-04T08:10:28.842Z,101200.75
2018-07-04T08:13:07.734Z,101205.38
2018-07-04T08:15:46.281Z,101211.50
2018-07-04T08:18:24.769Z,101197.72
2018-07-04T08:21:03.327Z,101193.09
2018-07-04T08:23:41.994Z,101194.69
2018-07-04T08:26:20.481Z,101194.64
2018-07-04T08:28:59.062Z,101196.56
2018-07-04T08:31:37.505Z,101186.44
2018-07-04T08:34:15.984Z,101181.58
2018-07-04T08:36:54.421Z,101187.48
2018-07-04T08:39:32.958Z,101188.31
2018-07-04T08:42:11.465Z,101184.77
2018-07-04T08:44:49.930Z,101188.71
2018-07-04T08:47:28.366Z,101186.03
2018-07-04T08:50:06.893Z,101193.66
2018-07-04T08:52:45.544Z,101193.95
2018-07-04T08:55:23.993Z,101194.26
2018-07-04T08:58:02.524Z,101185.24
2018-07-04T09:00:41.175Z,101186.47
2018-07-04T09:03:19.590Z,101182.02
2018-07-04T09:05:58.157Z,101185.11
2018-07-04T09:08:36.765Z,101184.66
2018-07-04T09:11:15.425Z,101184.75
2018-07-04T09:13:53.857Z,101182.15
2018-07-04T09:16:32.505Z,101179.77
2018-07-04T09:19:11.225Z,101172.20
2018-07-04T09:21:49.795Z,101174.58
2018-07-04T09:24:28.476Z,101179.52
2018-07-04T09:27:06.953Z,101169.28
2018-07-04T09:29:45.460Z,101177.28
2018-07-04T09:32:23.914Z,101173.69
2018-07-04T09:35:02.701Z,101172.40
2018-07-04T09:37:41.196Z,101172.86
2018-07-04T09:40:19.969Z,101170.27
2018-07-04T09:42:58.357Z,101164.97
2018-07-04T09:45:36.946Z,101160.99
2018-07-04T09:48:15.465Z,101159.68
2018-07-04T09:50:54.078Z,101162.28
2018-07-04T09:53:32.695Z,101168.12
2018-07-04T09:56:11.222Z,101161.38
2018-07-04T09:58:49.808Z,101169.41
2018-07-04T10:01:28.222Z,101167.03
2018-07-04T10:04:06.769Z,101170.28
2018-07-04T10:06:45.237Z,101163.70
2018-07-04T10:09:24.253Z,101163.87
2018-07-04T10:12:02.740Z,101152.98
2018-07-04T10:14:41.457Z,101149.30
2018-07-04T10:17:20.173Z,101151.74
2018-07-04T10:19:59.071Z,101141.31
2018-07-04T10:22:37.677Z,101155.87
2018-07-04T10:25:16.261Z,101151.06
2018-07-04T10:27:54.782Z,101140.07
2018-07-04T10:30:33.313Z,101141.16
2018-07-04T10:33:11.944Z,101141.00
2018-07-04T10:35:50.553Z,101134.61
2018-07-04T10:38:29.106Z,101141.41
2018-07-04T10:41:07.671Z,101132.55
2018-07-04T10:43:46.362Z,101133.39
2018-07-04T10:46:25.013Z,101136.81
2018-07-04T10:49:03.706Z,101129.86
2018-07-04T10:51:42.349Z,101119.90
2018-07-04T10:54:20.942Z,101122.91
2018-07-04T10:56:59.509Z,101118.62
2018-07-04T10:59:37.953Z,101114.43
2018-07-04T11:02:16.525Z,101110.53
2018-07-04T11:04:54.989Z,101116.55
2018-07-04T11:07:33.593Z,101112.54
2018-07-04T11:10:12.251Z,101119.38
2018-07-04T11:12:50.771Z,101108.05
2018-07-04T11:15:29.485Z,101105.98
2018-07-04T11:18:07.928Z,101107.52
2018-07-04T11:20:46.510Z,101104.95
2018-07-04T11:23:25.061Z,101106.48
2018-07-04T11:26:03.497Z,101102.37
2018-07-04T11:28:42.073Z,101098.03
2018-07-04T11:31:20.703Z,101089.81
2018-07-04T11:33:59.189Z,101096.38
2018-07-04T11:36:37.713Z,101090.30
2018-07-04T11:39:16.447Z,101089.66
2018-07-04T11:41:55.029Z,101089.59
2018-07-04T11:44:33.745Z,101093.83
2018-07-04T11:46:59.864Z,101086.19
2018-07-04T11:49:25.941Z,101085.74
2018-07-04T11:51:52.273Z,101082.75
2018-07-04T11:54:18.340Z,101084.88
2018-07-04T11:56:44.713Z,101082.91
2018-07-04T11:59:10.797Z,101084.33
2018-07-04T12:01:36.946Z,101094.48
2018-07-04T12:04:15.353Z,101086.95
2018-07-04T12:06:53.929Z,101086.06
2018-07-04T12:09:20.014Z,101086.42
2018-07-04T12:11:46.093Z,101082.78
2018-07-04T12:14:12.150Z,101074.27
2018-07-04T12:16:38.404Z,101072.31
2018-07-04T12:19:04.469Z,101074.89
2018-07-04T12:21:30.557Z,101080.85
2018-07-04T12:23:56.637Z,101072.13
2018-07-04T12:26:22.721Z,101063.28
2018-07-04T12:28:48.777Z,101065.70
2018-07-04T12:31:14.846Z,101065.88
2018-07-04T12:33:40.901Z,101069.41
2018-07-04T12:36:07.050Z,101070.84
2018-07-04T12:38:33.226Z,101067.02
2018-07-04T12:40:59.280Z,101073.97
2018-07-04T12:43:25.391Z,101070.84
2018-07-04T12:45:51.433Z,101076.58
2018-07-04T12:48:17.534Z,101070.41
2018-07-04T12:50:43.601Z,101054.23
2018-07-04T12:53:09.678Z,101063.87
2018-07-04T12:55:48.294Z,101057.70
2018-07-04T12:58:26.746Z,101058.11
2018-07-04T13:01:05.487Z,101055.31
2018-07-04T13:03:43.977Z,101048.75
2018-07-04T13:06:22.584Z,101051.44
2018-07-04T13:09:01.289Z,101044.66
2018-07-04T13:11:39.957Z,101046.38
2018-07-04T13:14:18.449Z,101040.27
2018-07-04T13:16:56.845Z,101033.24
2018-07-04T13:19:35.586Z,101028.96
2018-07-04T13:22:14.102Z,101027.76
2018-07-04T13:24:52.621Z,101038.13
2018-07-04T13:27:31.145Z,101028.51
2018-07-04T13:30:09.741Z,101021.50
2018-07-04T13:32:48.401Z,101013.15
2018-07-04T13:35:26.816Z,101017.08
2018-07-04T13:38:05.383Z,101004.92
2018-07-04T13:40:43.941Z,101003.30
2018-07-04T13:43:22.422Z,101001.62
2018-07-04T13:46:01.022Z,101000.05
2018-07-04T13:48:39.557Z,101004.21
2018-07-04T13:51:18.157Z,100995.42
2018-07-04T13:53:56.909Z,100989.02
2018-07-04T13:56:35.597Z,100991.33
2018-07-04T13:59:14.197Z,100991.36
2018-07-04T14:01:52.677Z,100985.51
2018-07-04T14:04:31.219Z,100973.55
2018-07-04T14:07:09.532Z,100979.82
2018-07-04T14:09:48.109Z,100982.91
2018-07-04T14:12:26.670Z,100993.66
2018-07-04T14:15:05.150Z,100988.27
2018-07-04T14:17:43.941Z,100994.28
2018-07-04T14:20:22.986Z,100990.11
2018-07-04T14:23:01.708Z,100997.80
2018-07-04T14:25:40.321Z,100990.74
2018-07-04T14:28:18.918Z,100993.19
2018-07-04T14:30:57.421Z,100992.36
2018-07-04T14:33:35.981Z,100994.74
2018-07-04T14:36:15.090Z,100994.22
2018-07-04T14:38:54.642Z,100993.95
2018-07-04T14:41:33.121Z,100987.61
2018-07-04T14:44:11.888Z,100990.30
2018-07-04T14:46:50.482Z,100987.19
2018-07-04T14:49:29.261Z,100990.02
2018-07-04T14:52:08.164Z,100983.44
2018-07-04T14:54:46.817Z,100979.55
2018-07-04T14:57:25.306Z,100987.67
2018-07-04T15:00:03.873Z,100982.89
2018-07-04T15:02:42.601Z,100983.13
2018-07-04T15:05:21.457Z,100986.58
2018-07-04T15:08:00.050Z,100983.72
2018-07-04T15:10:38.618Z,100981.20
2018-07-04T15:13:17.341Z,100974.62
2018-07-04T15:15:55.800Z,100969.25
2018-07-04T15:18:34.341Z,100968.45
2018-07-04T15:21:12.782Z,100967.91
2018-07-04T15:23:51.646Z,100964.95
2018-07-04T15:26:30.189Z,100960.33
2018-07-04T15:29:08.924Z,100962.39
2018-07-04T15:31:47.385Z,100954.12
2018-07-04T15:34:25.897Z,100965.70
2018-07-04T15:37:04.301Z,100959.73
2018-07-04T15:39:42.985Z,100959.97
2018-07-04T15:42:21.602Z,100956.79
2018-07-04T15:45:00.158Z,100962.09
2018-07-04T15:47:38.703Z,100956.48
2018-07-04T15:50:17.238Z,100955.45
2018-07-04T15:52:55.661Z,100957.38
2018-07-04T15:55:34.349Z,100952.77
2018-07-04T15:58:12.945Z,100954.17
2018-07-04T16:00:51.601Z,100953.66
2018-07-04T16:03:30.265Z,100948.29
2018-07-04T16:06:08.794Z,100949.39
2018-07-04T16:08:47.477Z,100945.13
2018-07-04T16:11:25.973Z,100946.03
2018-07-04T16:14:04.633Z,100945.44
2018-07-04T16:16:43.460Z,100942.45
2018-07-04T16:19:22.150Z,100942.45
2018-07-04T16:22:00.669Z,100944.02
2018-07-04T16:24:39.338Z,100943.51
2018-07-04T16:27:17.853Z,100940.59
2018-07-04T16:29:56.314Z,100940.61
2018-07-04T16:32:34.743Z,100939.68
2018-07-04T16:35:13.146Z,100935.27
2018-07-04T16:37:51.696Z,100929.77
2018-07-04T16:40:30.309Z,100927.08
2018-07-04T16:43:08.924Z,100926.94
2018-07-04T16:45:47.549Z,100927.97
2018-07-04T16:48:26.060Z,100932.75
2018-07-04T16:51:04.689Z,100925.45
2018-07-04T16:53:43.253Z,100923.73
2018-07-04T16:56:21.709Z,100931.04
2018-07-04T16:59:00.334Z,100927.53
2018-07-04T17:01:38.926Z,100921.48
2018-07-04T17:04:17.549Z,100912.98
2018-07-04T17:06:55.987Z,100933.95
2018-07-04T17:09:34.441Z,100929.18
2018-07-04T17:12:12.989Z,100929.78
2018-07-04T17:14:51.664Z,100927.89
2018-07-04T17:17:30.175Z,100925.01
2018-07-04T17:20:08.832Z,100926.94
2018-07-04T17:22:47.453Z,100931.79
2018-07-04T17:25:25.967Z,100932.82
2018-07-04T17:28:04.470Z,100931.11
2018-07-04T17:30:43.053Z,100922.03
2018-07-04T17:33:22.074Z,100922.38
2018-07-04T17:36:00.550Z,100922.45
2018-07-04T17:38:39.020Z,100919.03
2018-07-04T17:41:17.594Z,100917.60
2018-07-04T17:43:56.032Z,100913.96
2018-07-04T17:46:34.677Z,100918.58
2018-07-04T17:49:13.306Z,100914.11
2018-07-04T17:51:51.953Z,100917.82
2018-07-04T17:54:30.514Z,100923.50
2018-07-04T17:57:09.092Z,100920.23
2018-07-04T17:59:47.768Z,100922.09
2018-07-04T18:02:26.221Z,100921.57
2018-07-04T18:05:04.733Z,100922.60
2018-07-04T18:07:43.286Z,100921.65
2018-07-04T18:10:21.696Z,100926.05
2018-07-04T18:13:00.381Z,100922.81
2018-07-04T18:15:39.125Z,100926.50
2018-07-04T18:18:18.713Z,100931.31
2018-07-04T18:20:59.716Z,100930.59
2018-07-04T18:23:38.294Z,100928.12
2018-07-04T18:26:16.929Z,100920.06
2018-07-04T18:28:55.317Z,100918.14
2018-07-04T18:31:33.946Z,100925.75
2018-07-04T18:34:12.496Z,100934.46
2018-07-04T18:36:51.056Z,100923.08
2018-07-04T18:39:29.424Z,100922.19
2018-07-04T18:42:08.105Z,100922.67
2018-07-04T18:44:46.558Z,100932.80
2018-07-04T18:47:25.214Z,100932.17
2018-07-04T18:50:03.597Z,100937.20
2018-07-04T18:52:42.090Z,100933.58
2018-07-04T18:55:20.680Z,100939.94
2018-07-04T18:57:59.523Z,100940.53
2018-07-04T19:00:37.966Z,100937.19
2018-07-04T19:03:16.394Z,100938.50
2018-07-04T19:05:54.864Z,100935.17
2018-07-04T19:08:33.473Z,100934.49
2018-07-04T19:11:11.891Z,100932.27
2018-07-04T19:13:50.917Z,100931.45
2018-07-04T19:16:29.316Z,100928.91
2018-07-04T19:19:07.945Z,100933.05
2018-07-04T19:21:46.438Z,100928.66
2018-07-04T19:24:25.301Z,100925.71
2018-07-04T19:27:03.781Z,100927.16
2018-07-04T19:29:42.149Z,100928.50
2018-07-04T19:32:20.935Z,100932.61
2018-07-04T19:34:59.504Z,100926.86
2018-07-04T19:37:38.044Z,100928.80
2018-07-04T19:40:16.641Z,100930.25
2018-07-04T19:42:55.164Z,100928.28
2018-07-04T19:45:33.633Z,100924.06
2018-07-04T19:48:12.265Z,100926.95
2018-07-04T19:50:50.789Z,100931.36
2018-07-04T19:53:29.628Z,100926.91
2018-07-04T19:56:07.990Z,100927.12
2018-07-04T19:58:46.590Z,100918.84
2018-07-04T20:01:24.929Z,100921.06
2018-07-04T20:04:03.421Z,100923.60
2018-07-04T20:06:42.074Z,100922.03
2018-07-04T20:09:20.631Z,100920.57
2018-07-04T20:11:59.306Z,100925.64
2018-07-04T20:14:37.825Z,100912.94
2018-07-04T20:17:16.443Z,100936.60
2018-07-04T20:19:54.909Z,100937.70
2018-07-04T20:22:33.590Z,100937.16
2018-07-04T20:25:12.074Z,100932.27
2018-07-04T20:27:50.753Z,100932.95
2018-07-04T20:30:29.310Z,100937.41
2018-07-04T20:33:07.886Z,100943.16
2018-07-04T20:35:46.365Z,100937.30
2018-07-04T20:38:24.858Z,100941.75
2018-07-04T20:41:03.366Z,100946.16
2018-07-04T20:43:42.005Z,100943.13
2018-07-04T20:46:20.430Z,100945.84
2018-07-04T20:48:59.032Z,100942.66
2018-07-04T20:51:37.733Z,100949.06
2018-07-04T20:54:16.416Z,100950.47
2018-07-04T20:56:54.961Z,100962.06
2018-07-04T20:59:33.516Z,100963.33
2018-07-04T21:02:12.225Z,100958.24
2018-07-04T21:04:50.889Z,100953.66
2018-07-04T21:07:29.498Z,100952.90
2018-07-04T21:10:08.021Z,100963.14
2018-07-04T21:12:46.674Z,100961.34
2018-07-04T21:15:25.229Z,100971.55
2018-07-04T21:18:03.869Z,100964.63
2018-07-04T21:20:42.221Z,100961.97
2018-07-04T21:23:21.418Z,100966.22
2018-07-04T21:25:59.861Z,100964.12
2018-07-04T21:28:38.473Z,100965.98
2018-07-04T21:31:16.917Z,100964.38
2018-07-04T21:33:55.466Z,100963.11
2018-07-04T21:36:34.197Z,100967.95
2018-07-04T21:39:12.711Z,100967.68
2018-07-04T21:41:51.317Z,100965.58
2018-07-04T21:44:29.769Z,100962.84
2018-07-04T21:47:08.454Z,100954.39
2018-07-04T21:49:46.967Z,100955.78
2018-07-04T21:52:25.314Z,100961.45
2018-07-04T21:55:04.022Z,100965.16
2018-07-04T21:57:42.601Z,100965.84
2018-07-04T22:00:22.777Z,100962.91
2018-07-04T22:03:01.357Z,100959.13
2018-07-04T22:05:40.042Z,100966.52
2018-07-04T22:08:19.166Z,100968.02
2018-07-04T22:10:57.647Z,100973.20
2018-07-04T22:13:36.168Z,100964.15
2018-07-04T22:16:14.632Z,100961.20
2018-07-04T22:18:53.412Z,100963.22
2018-07-04T22:21:31.884Z,100965.20
2018-07-04T22:24:10.505Z,100964.61
2018-07-04T22:26:48.889Z,100956.66
2018-07-04T22:29:27.369Z,100960.69
2018-07-04T22:32:05.934Z,100954.89
2018-07-04T22:34:44.564Z,100953.27
2018-07-04T22:37:23.122Z,100952.81
2018-07-04T22:40:01.725Z,100956.00
2018-07-04T22:42:40.302Z,100943.25
2018-07-04T22:45:18.889Z,100950.79
2018-07-04T22:47:57.410Z,100945.98
2018-07-04T22:50:36.091Z,100944.36
2018-07-04T22:53:15.081Z,100940.80
2018-07-04T22:55:53.553Z,100941.95
2018-07-04T22:58:32.102Z,100936.53
2018-07-04T23:01:10.518Z,100938.69
2018-07-04T23:03:49.066Z,100941.53
2018-07-04T23:06:27.546Z,100938.87
2018-07-04T23:09:06.116Z,100930.43
2018-07-04T23:11:44.766Z,100927.66
2018-07-04T23:14:23.266Z,100938.11
2018-07-04T23:17:01.917Z,100927.84
2018-07-04T23:19:40.478Z,100929.02
2018-07-04T23:22:19.078Z,100928.03
2018-07-04T23:24:57.605Z,100935.83
2018-07-04T23:27:36.053Z,100945.78
2018-07-04T23:30:14.592Z,100943.47
2018-07-04T23:32:53.192Z,100935.05
2018-07-04T23:35:31.830Z,100943.34
2018-07-04T23:38:10.481Z,100954.12
2018-07-04T23:40:49.091Z,100951.99
2018-07-04T23:43:27.596Z,100958.61
2018-07-04T23:46:06.205Z,100950.50
2018-07-04T23:48:44.725Z,100945.56
2018-07-04T23:51:23.387Z,100943.41
2018-07-04T23:54:01.958Z,100947.74
2018-07-04T23:56:40.489Z,100951.22
2018-07-04T23:59:19.073Z,100958.51
